Time;durP1;ratioP1;P1;durP2;ratioP2;P2;SDS_P1;SDS_P2;PMS_P1;PMS_P2;Temp;Humidity;BMP_temperature;BMP_pressure;BME280_temperature;BME280_humidity;BME280_pressure;Samples;Min_cycle;Max_cycle;Signal;HPM_P1;HPM_P2
2022/06/15 00:01:35;;;;;;;3.05;1.83;;;;;;;;;;5073529;28;20065;-93
2022/06/15 00:04:03;;;;;;;2.92;2.10;;;;;;;;;;5073520;28;20035;-93
2022/06/15 00:06:30;;;;;;;6.97;2.53;;;;;;;;;;5073768;28;20047;-92
2022/06/15 00:08:57;;;;;;;5.30;2.33;;;;;;;;;;5072435;28;20033;-93
2022/06/15 00:11:23;;;;;;;3.55;1.95;;;;;;;;;;5091675;28;20512;-93
2022/06/15 00:13:50;;;;;;;4.20;2.30;;;;;;;;;;5092819;28;20105;-92
2022/06/15 00:16:17;;;;;;;5.63;2.20;;;;;;;;;;5092925;28;20472;-91
2022/06/15 00:18:44;;;;;;;2.83;1.92;;;;;;;;;;5096051;28;20024;-93
2022/06/15 00:21:11;;;;;;;5.35;2.50;;;;;;;;;;5100778;28;20488;-92
2022/06/15 00:23:37;;;;;;;3.65;2.45;;;;;;;;;;5094380;28;20388;-93
2022/06/15 00:26:04;;;;;;;3.92;2.55;;;;;;;;;;5094304;28;20426;-92
2022/06/15 00:28:30;;;;;;;4.20;2.30;;;;;;;;;;5093496;28;20466;-92
2022/06/15 00:30:57;;;;;;;5.78;2.20;;;;;;;;;;5093811;28;20476;-91
2022/06/15 00:33:24;;;;;;;5.50;2.05;;;;;;;;;;5095152;28;20476;-94
2022/06/15 00:35:55;;;;;;;5.30;2.47;;;;;;;;;;5095632;28;20480;-92
2022/06/15 00:38:21;;;;;;;4.28;2.00;;;;;;;;;;5093833;28;20028;-93
2022/06/15 00:40:47;;;;;;;5.20;2.80;;;;;;;;;;5095571;28;20024;-93
2022/06/15 00:43:13;;;;;;;5.47;2.30;;;;;;;;;;5095442;28;20518;-92
2022/06/15 00:45:40;;;;;;;6.93;2.60;;;;;;;;;;5093902;28;20027;-90
2022/06/15 00:48:06;;;;;;;6.30;2.63;;;;;;;;;;5094440;28;20105;-92
2022/06/15 00:50:32;;;;;;;4.55;2.63;;;;;;;;;;5082245;28;20058;-92
2022/06/15 00:53:08;;;;;;;4.05;2.60;;;;;;;;;;5072921;28;20021;-92
2022/06/15 00:55:35;;;;;;;5.55;2.25;;;;;;;;;;5072801;28;20112;-93
2022/06/15 00:58:03;;;;;;;4.28;2.40;;;;;;;;;;5074464;28;20042;-92
2022/06/15 01:00:30;;;;;;;2.55;1.98;;;;;;;;;;5075977;28;20031;-93
2022/06/15 01:02:56;;;;;;;6.50;2.15;;;;;;;;;;5089357;28;20037;-94
2022/06/15 01:05:33;;;;;;;4.78;2.50;;;;;;;;;;5083687;28;20028;-92
2022/06/15 01:08:15;;;;;;;3.08;2.20;;;;;;;;;;5073128;28;20388;-91
2022/06/15 01:10:44;;;;;;;3.30;2.00;;;;;;;;;;5075533;28;20103;-92
2022/06/15 01:13:24;;;;;;;3.40;2.17;;;;;;;;;;5077828;28;20051;-91
2022/06/15 01:15:59;;;;;;;2.80;2.22;;;;;;;;;;5076622;28;20537;-92
2022/06/15 01:18:28;;;;;;;4.57;2.60;;;;;;;;;;5078306;28;20024;-92
2022/06/15 01:21:13;;;;;;;5.35;2.40;;;;;;;;;;5086391;28;20116;-91
2022/06/15 01:23:54;;;;;;;3.72;2.38;;;;;;;;;;5078690;28;20031;-92
2022/06/15 01:26:24;;;;;;;3.00;2.38;;;;;;;;;;5078381;28;20024;-92
2022/06/15 01:28:54;;;;;;;4.85;2.30;;;;;;;;;;5078545;28;20036;-91
2022/06/15 01:31:20;;;;;;;5.22;2.55;;;;;;;;;;5077862;28;20017;-91
2022/06/15 01:33:46;;;;;;;5.60;2.70;;;;;;;;;;5077077;28;20096;-93
2022/06/15 01:36:13;;;;;;;3.75;2.70;;;;;;;;;;5077319;28;20122;-92
2022/06/15 01:38:39;;;;;;;5.80;3.08;;;;;;;;;;5076969;28;20029;-91
2022/06/15 01:41:19;;;;;;;3.92;2.75;;;;;;;;;;5076665;28;20062;-92
2022/06/15 01:44:09;;;;;;;5.63;2.75;;;;;;;;;;5076904;28;20048;-91
2022/06/15 01:46:39;;;;;;;4.85;3.03;;;;;;;;;;5076988;28;20434;-91
2022/06/15 01:49:06;;;;;;;6.35;2.55;;;;;;;;;;5076784;28;20032;-92
2022/06/15 01:51:34;;;;;;;5.53;3.15;;;;;;;;;;5078876;28;20035;-92
2022/06/15 01:54:02;;;;;;;6.85;3.47;;;;;;;;;;5079726;28;20017;-92
2022/06/15 01:56:33;;;;;;;5.18;2.72;;;;;;;;;;5078942;28;20032;-92
2022/06/15 01:59:02;;;;;;;5.45;2.63;;;;;;;;;;5081347;28;20036;-93
2022/06/15 02:01:38;;;;;;;5.40;2.60;;;;;;;;;;5080212;28;20392;-92
2022/06/15 02:04:09;;;;;;;4.63;3.00;;;;;;;;;;5077910;28;20118;-92
2022/06/15 02:06:36;;;;;;;5.18;2.70;;;;;;;;;;5078281;28;20063;-92
2022/06/15 02:09:11;;;;;;;8.82;3.20;;;;;;;;;;5078130;28;20456;-90
2022/06/15 02:11:39;;;;;;;3.70;2.53;;;;;;;;;;5077648;28;20028;-90
2022/06/15 02:14:15;;;;;;;3.75;2.78;;;;;;;;;;5077894;28;20384;-92
2022/06/15 02:16:42;;;;;;;4.85;2.90;;;;;;;;;;5078598;28;20029;-92
2022/06/15 02:19:10;;;;;;;6.65;3.20;;;;;;;;;;5078202;28;20028;-91
2022/06/15 02:21:37;;;;;;;9.25;2.75;;;;;;;;;;5090667;28;20088;-92
2022/06/15 02:24:04;;;;;;;6.40;2.85;;;;;;;;;;5119678;28;20047;-92
2022/06/15 02:26:36;;;;;;;7.43;2.80;;;;;;;;;;5120246;28;20046;-93
2022/06/15 02:29:08;;;;;;;4.47;2.75;;;;;;;;;;5119285;28;20023;-94
2022/06/15 02:31:36;;;;;;;6.18;3.40;;;;;;;;;;5118174;28;20443;-90
2022/06/15 02:34:03;;;;;;;3.78;2.83;;;;;;;;;;5097509;28;20024;-89
2022/06/15 02:36:32;;;;;;;5.88;3.08;;;;;;;;;;5098325;28;20094;-90
2022/06/15 02:38:58;;;;;;;6.28;3.13;;;;;;;;;;5097321;28;20052;-90
2022/06/15 02:41:24;;;;;;;10.23;3.75;;;;;;;;;;5097132;28;20028;-91
2022/06/15 02:43:51;;;;;;;4.10;2.60;;;;;;;;;;5095789;28;20705;-92
2022/06/15 02:46:18;;;;;;;6.75;3.15;;;;;;;;;;5096433;28;20078;-92
2022/06/15 02:48:44;;;;;;;5.05;3.17;;;;;;;;;;5097766;28;20038;-92
2022/06/15 02:51:13;;;;;;;5.00;2.67;;;;;;;;;;5096904;28;20024;-92
2022/06/15 02:53:40;;;;;;;4.57;3.08;;;;;;;;;;5095916;28;20059;-92
2022/06/15 02:56:07;;;;;;;4.85;3.08;;;;;;;;;;5097978;28;20021;-91
2022/06/15 02:58:38;;;;;;;6.00;3.10;;;;;;;;;;5096539;28;20024;-92
2022/06/15 03:01:05;;;;;;;7.70;3.20;;;;;;;;;;5096250;28;20031;-91
2022/06/15 03:03:31;;;;;;;5.63;3.25;;;;;;;;;;5096698;28;20081;-92
2022/06/15 03:05:57;;;;;;;7.13;3.15;;;;;;;;;;5082301;28;20109;-91
2022/06/15 03:08:23;;;;;;;8.82;2.90;;;;;;;;;;5076543;28;20032;-92
2022/06/15 03:10:50;;;;;;;4.78;3.00;;;;;;;;;;5076322;28;20017;-92
2022/06/15 03:13:16;;;;;;;3.97;2.92;;;;;;;;;;5078118;28;20388;-92
2022/06/15 03:15:42;;;;;;;5.32;3.03;;;;;;;;;;5077844;28;20025;-92
2022/06/15 03:18:08;;;;;;;7.68;4.03;;;;;;;;;;5076210;28;20020;-92
2022/06/15 03:20:34;;;;;;;5.30;3.65;;;;;;;;;;5076562;28;20436;-91
2022/06/15 03:23:01;;;;;;;6.82;3.13;;;;;;;;;;5077981;28;20036;-91
2022/06/15 03:25:27;;;;;;;7.25;3.33;;;;;;;;;;5076273;28;20020;-91
2022/06/15 03:27:53;;;;;;;7.10;3.63;;;;;;;;;;5076139;28;20035;-91
2022/06/15 03:30:20;;;;;;;4.25;3.40;;;;;;;;;;5076339;28;20035;-91
2022/06/15 03:32:46;;;;;;;8.05;4.40;;;;;;;;;;5074738;28;20056;-91
2022/06/15 03:35:12;;;;;;;7.03;3.53;;;;;;;;;;5078016;28;20024;-92
2022/06/15 03:37:38;;;;;;;6.30;3.95;;;;;;;;;;5079649;28;20016;-91
2022/06/15 03:40:08;;;;;;;5.85;3.45;;;;;;;;;;5075842;28;20123;-91
2022/06/15 03:42:36;;;;;;;5.00;3.83;;;;;;;;;;5075605;28;20032;-93
2022/06/15 03:45:03;;;;;;;4.50;3.45;;;;;;;;;;5077309;28;20171;-91
2022/06/15 03:47:29;;;;;;;6.05;3.42;;;;;;;;;;5076426;28;20054;-92
2022/06/15 03:49:55;;;;;;;6.75;3.38;;;;;;;;;;5076979;28;20047;-92
2022/06/15 03:52:23;;;;;;;6.03;3.58;;;;;;;;;;5076896;28;20039;-92
2022/06/15 03:54:50;;;;;;;6.15;3.35;;;;;;;;;;5079582;28;20465;-94
2022/06/15 03:57:18;;;;;;;6.10;3.30;;;;;;;;;;5079547;28;20055;-91
2022/06/15 03:59:44;;;;;;;5.53;3.60;;;;;;;;;;5077863;28;20036;-92
2022/06/15 04:02:10;;;;;;;7.55;3.60;;;;;;;;;;5080049;28;20310;-92
2022/06/15 04:04:37;;;;;;;6.13;3.30;;;;;;;;;;5077605;28;20055;-91
2022/06/15 04:07:03;;;;;;;8.75;3.40;;;;;;;;;;5076810;28;20028;-91
2022/06/15 04:09:30;;;;;;;7.93;3.22;;;;;;;;;;5075231;28;20032;-91
2022/06/15 04:12:01;;;;;;;8.85;3.97;;;;;;;;;;5075135;28;20028;-91
2022/06/15 04:14:28;;;;;;;4.20;3.33;;;;;;;;;;5074267;28;20017;-91
2022/06/15 04:16:54;;;;;;;4.35;3.53;;;;;;;;;;5075501;28;20020;-92
2022/06/15 04:19:21;;;;;;;6.70;2.90;;;;;;;;;;5095355;28;20440;-90
2022/06/15 04:21:47;;;;;;;8.40;3.45;;;;;;;;;;5113598;28;20051;-92
2022/06/15 04:24:13;;;;;;;6.90;3.08;;;;;;;;;;5110041;28;20417;-92
2022/06/15 04:26:39;;;;;;;7.15;3.35;;;;;;;;;;5093591;28;20028;-91
2022/06/15 04:29:06;;;;;;;4.18;2.92;;;;;;;;;;5094404;28;20020;-92
2022/06/15 04:31:32;;;;;;;4.38;2.95;;;;;;;;;;5093052;28;20069;-92
2022/06/15 04:33:58;;;;;;;10.02;3.63;;;;;;;;;;5094460;28;20020;-92
2022/06/15 04:36:26;;;;;;;5.95;3.28;;;;;;;;;;5093143;28;20491;-90
2022/06/15 04:38:52;;;;;;;6.32;3.13;;;;;;;;;;5092605;28;20038;-91
2022/06/15 04:41:18;;;;;;;5.88;3.58;;;;;;;;;;5096988;28;20055;-91
2022/06/15 04:43:44;;;;;;;9.10;3.10;;;;;;;;;;5096415;28;20398;-92
2022/06/15 04:46:12;;;;;;;13.57;3.67;;;;;;;;;;5095808;28;20030;-92
2022/06/15 04:48:42;;;;;;;5.88;3.00;;;;;;;;;;5095093;28;20021;-92
2022/06/15 04:51:20;;;;;;;4.78;3.35;;;;;;;;;;5093835;28;20043;-92
2022/06/15 04:53:47;;;;;;;9.77;3.67;;;;;;;;;;5092956;28;20055;-91
2022/06/15 04:56:13;;;;;;;4.57;2.85;;;;;;;;;;5096480;28;20046;-92
2022/06/15 04:58:40;;;;;;;5.18;2.80;;;;;;;;;;5092848;28;20024;-90
2022/06/15 05:01:07;;;;;;;4.68;2.90;;;;;;;;;;5091947;28;20094;-90
2022/06/15 05:03:36;;;;;;;7.25;3.45;;;;;;;;;;5092282;28;20020;-90
2022/06/15 05:06:07;;;;;;;4.78;3.58;;;;;;;;;;5093854;28;20031;-90
2022/06/15 05:08:33;;;;;;;8.13;4.00;;;;;;;;;;5093780;28;20034;-90
2022/06/15 05:11:00;;;;;;;5.43;3.45;;;;;;;;;;5092564;28;20110;-91
2022/06/15 05:13:27;;;;;;;6.60;3.10;;;;;;;;;;5093952;28;20020;-90
2022/06/15 05:15:53;;;;;;;6.90;3.13;;;;;;;;;;5093833;28;20115;-91
2022/06/15 05:18:19;;;;;;;3.75;3.10;;;;;;;;;;5092922;28;20077;-89
2022/06/15 05:20:44;;;;;;;6.22;3.35;;;;;;;;;;5110026;28;20016;-91
2022/06/15 05:23:17;;;;;;;5.88;3.03;;;;;;;;;;5087770;28;20472;-91
2022/06/15 05:25:43;;;;;;;6.57;3.15;;;;;;;;;;5083997;28;20376;-90
2022/06/15 05:28:14;;;;;;;6.10;3.03;;;;;;;;;;5072312;28;20025;-90
2022/06/15 05:30:40;;;;;;;6.70;3.00;;;;;;;;;;5072851;28;20058;-91
2022/06/15 05:33:06;;;;;;;3.97;3.05;;;;;;;;;;5073453;28;20028;-90
2022/06/15 05:35:32;;;;;;;6.57;3.20;;;;;;;;;;5072372;28;20056;-89
2022/06/15 05:37:58;;;;;;;4.95;3.25;;;;;;;;;;5073052;28;20024;-90
2022/06/15 05:40:32;;;;;;;7.22;3.30;;;;;;;;;;5073180;28;20504;-89
2022/06/15 05:43:17;;;;;;;5.35;2.95;;;;;;;;;;5070925;28;20607;-90
2022/06/15 05:45:45;;;;;;;6.10;3.10;;;;;;;;;;5059771;28;20036;-90
2022/06/15 05:48:14;;;;;;;8.40;3.03;;;;;;;;;;5074032;28;20021;-90
2022/06/15 05:50:43;;;;;;;6.78;3.35;;;;;;;;;;5073994;28;20028;-92
2022/06/15 05:53:13;;;;;;;4.55;2.63;;;;;;;;;;5071733;28;20032;-91
2022/06/15 05:55:46;;;;;;;4.90;2.97;;;;;;;;;;5076364;28;20027;-91
2022/06/15 05:58:21;;;;;;;3.67;2.50;;;;;;;;;;5074411;28;20067;-90
2022/06/15 06:00:56;;;;;;;6.15;2.58;;;;;;;;;;5075386;28;20039;-90
2022/06/15 06:03:29;;;;;;;4.00;2.80;;;;;;;;;;5091099;28;20514;-91
2022/06/15 06:05:59;;;;;;;4.07;2.63;;;;;;;;;;5074939;28;20021;-91
2022/06/15 06:08:31;;;;;;;4.32;3.28;;;;;;;;;;5076396;28;20032;-91
2022/06/15 06:11:03;;;;;;;8.68;3.13;;;;;;;;;;5074858;28;20028;-91
2022/06/15 06:13:37;;;;;;;6.35;2.78;;;;;;;;;;5074469;28;20027;-90
2022/06/15 06:16:13;;;;;;;3.28;2.50;;;;;;;;;;5076199;28;20048;-91
2022/06/15 06:18:44;;;;;;;7.03;2.85;;;;;;;;;;5076168;28;20024;-91
2022/06/15 06:21:25;;;;;;;;;;;;;;;;;;5074424;28;20044;-91
2022/06/15 06:23:51;;;;;;;;;;;;;;;;;;5075865;28;19905;-91
2022/06/15 06:26:31;;;;;;;;;;;;;;;;;;;;;
2022/06/15 06:29:07;;;;;;;7.90;2.72;;;;;;;;;;5075755;28;20029;-91
2022/06/15 06:31:33;;;;;;;6.45;2.72;;;;;;;;;;5075443;28;20025;-91
2022/06/15 06:33:59;;;;;;;4.68;3.00;;;;;;;;;;5075570;28;20396;-90
2022/06/15 06:36:35;;;;;;;3.78;2.70;;;;;;;;;;5072949;28;20119;-91
2022/06/15 06:39:13;;;;;;;3.42;2.70;;;;;;;;;;5074267;28;20025;-89
2022/06/15 06:41:50;;;;;;;8.35;3.33;;;;;;;;;;5075393;28;20067;-91
2022/06/15 07:12:31;;;;;;;4.28;2.53;;;;;;;;;;5015798;28;20076;-92
2022/06/15 07:14:57;;;;;;;5.32;2.53;;;;;;;;;;5016088;28;20037;-94
2022/06/15 07:17:23;;;;;;;11.02;3.20;;;;;;;;;;4999576;28;20023;-93
2022/06/15 07:19:55;;;;;;;11.02;2.92;;;;;;;;;;4998137;28;20026;-93
2022/06/15 11:46:53;;;;;;;4.35;2.00;;;;;;;;;;5050500;28;20057;-88
2022/06/15 11:50:07;;;;;;;9.82;1.95;;;;;;;;;;5053917;28;20025;-92
2022/06/15 11:52:39;;;;;;;3.63;1.80;;;;;;;;;;5048033;28;20065;-89
2022/06/15 11:55:22;;;;;;;3.05;1.70;;;;;;;;;;5032431;28;20505;-90
2022/06/15 11:57:53;;;;;;;2.17;1.70;;;;;;;;;;5032359;28;20037;-90
2022/06/15 12:00:23;;;;;;;3.20;2.10;;;;;;;;;;5031873;28;20029;-90
2022/06/15 12:03:01;;;;;;;7.55;2.13;;;;;;;;;;5032616;28;20112;-91
2022/06/15 12:06:04;;;;;;;8.15;1.95;;;;;;;;;;5033431;28;20468;-89
2022/06/15 12:24:46;;;;;;;;;;;;;;;;;;;;;
2022/06/15 12:39:45;;;;;;;;;;;;;;;;;;;;;
2022/06/15 12:42:55;;;;;;;;;;;;;;;;;;;;;
2022/06/15 12:45:43;;;;;;;3.17;1.70;;;;;;;;;;4969191;28;20047;-93
2022/06/15 12:48:14;;;;;;;3.65;1.50;;;;;;;;;;4970646;28;20041;-90
2022/06/15 12:50:47;;;;;;;6.22;1.40;;;;;;;;;;4982691;28;20053;-91
2022/06/15 12:53:39;;;;;;;5.30;1.70;;;;;;;;;;5025294;28;20049;-91
2022/06/15 12:56:23;;;;;;;2.33;1.42;;;;;;;;;;5032588;28;20026;-90
2022/06/15 12:59:16;;;;;;;3.05;1.58;;;;;;;;;;5032529;28;20037;-92
2022/06/15 13:01:48;;;;;;;7.00;1.65;;;;;;;;;;5040808;28;20060;-90
2022/06/15 13:04:19;;;;;;;5.63;1.58;;;;;;;;;;5034466;28;20014;-94
2022/06/15 13:07:14;;;;;;;3.17;1.50;;;;;;;;;;5040396;28;20029;-93
2022/06/15 13:09:41;;;;;;;4.13;1.33;;;;;;;;;;5031917;28;20498;-92
2022/06/15 13:12:08;;;;;;;4.72;0.95;;;;;;;;;;5016778;28;20055;-92
2022/06/15 13:14:36;;;;;;;1.27;1.05;;;;;;;;;;5025327;28;20025;-90
2022/06/15 13:17:08;;;;;;;3.90;1.50;;;;;;;;;;5035821;28;20022;-90
2022/06/15 13:19:36;;;;;;;3.72;1.50;;;;;;;;;;5037312;28;20470;-90
2022/06/15 13:22:14;;;;;;;5.28;1.52;;;;;;;;;;5035658;28;20117;-91
2022/06/15 13:24:48;;;;;;;2.33;1.30;;;;;;;;;;5036248;28;20103;-91
2022/06/15 13:27:27;;;;;;;1.98;1.13;;;;;;;;;;5036583;28;20087;-91
2022/06/15 13:30:09;;;;;;;3.40;0.98;;;;;;;;;;5036339;28;20100;-92
2022/06/15 13:32:53;;;;;;;2.05;1.13;;;;;;;;;;5051531;28;20041;-94
2022/06/15 13:35:21;;;;;;;2.85;1.15;;;;;;;;;;5051981;28;20064;-92
2022/06/15 13:37:58;;;;;;;1.77;0.80;;;;;;;;;;5035004;28;20029;-90
2022/06/15 13:40:24;;;;;;;3.60;1.25;;;;;;;;;;5036362;28;20525;-92
2022/06/15 13:42:56;;;;;;;2.60;1.48;;;;;;;;;;5036329;28;20112;-90
2022/06/15 13:45:43;;;;;;;4.55;1.35;;;;;;;;;;5033625;28;20029;-91
2022/06/15 13:48:13;;;;;;;3.92;2.08;;;;;;;;;;5034923;28;20083;-91
2022/06/15 13:50:39;;;;;;;3.00;1.70;;;;;;;;;;5035335;28;20151;-92
2022/06/15 13:53:07;;;;;;;3.80;1.60;;;;;;;;;;5024972;28;20449;-91
2022/06/15 13:55:45;;;;;;;4.75;1.70;;;;;;;;;;5014172;28;20426;-91
2022/06/15 13:58:30;;;;;;;1.65;1.30;;;;;;;;;;5015589;28;20025;-91
2022/06/15 14:01:11;;;;;;;1.95;1.17;;;;;;;;;;5014067;28;20036;-91
2022/06/15 14:03:49;;;;;;;1.98;1.35;;;;;;;;;;5031097;28;20045;-92
2022/06/15 14:06:34;;;;;;;4.68;1.30;;;;;;;;;;5014622;28;20084;-93
2022/06/15 14:09:03;;;;;;;3.50;1.33;;;;;;;;;;5033573;28;20056;-93
2022/06/15 14:11:45;;;;;;;4.28;1.45;;;;;;;;;;5038210;28;20022;-93
2022/06/15 14:14:14;;;;;;;3.55;1.35;;;;;;;;;;5037644;28;20010;-93
2022/06/15 14:16:40;;;;;;;6.45;1.77;;;;;;;;;;5037320;28;20038;-94
2022/06/15 14:19:08;;;;;;;3.35;1.50;;;;;;;;;;5029060;28;20039;-92
2022/06/15 14:21:37;;;;;;;2.22;1.40;;;;;;;;;;5034354;28;20026;-92
2022/06/15 14:24:23;;;;;;;2.42;1.30;;;;;;;;;;5034167;28;20404;-92
2022/06/15 14:26:49;;;;;;;3.53;1.50;;;;;;;;;;5034112;28;20033;-91
2022/06/15 14:29:17;;;;;;;1.70;1.38;;;;;;;;;;5033864;28;20029;-90
2022/06/15 14:31:45;;;;;;;6.45;1.80;;;;;;;;;;5034643;28;20477;-91
2022/06/15 14:34:19;;;;;;;7.93;1.73;;;;;;;;;;5034867;28;20031;-91
2022/06/15 14:36:56;;;;;;;4.53;2.00;;;;;;;;;;5033623;28;20109;-91
2022/06/15 14:39:27;;;;;;;3.72;1.52;;;;;;;;;;5033663;28;20038;-91
2022/06/15 14:42:19;;;;;;;4.82;2.58;;;;;;;;;;5033218;28;20025;-92
2022/06/15 14:44:46;;;;;;;2.85;1.63;;;;;;;;;;5047668;28;20045;-91
2022/06/15 14:47:17;;;;;;;4.97;1.75;;;;;;;;;;5032007;28;20028;-92
2022/06/15 14:49:50;;;;;;;4.03;1.80;;;;;;;;;;5033082;28;20084;-91
2022/06/15 14:52:19;;;;;;;4.43;1.60;;;;;;;;;;5028575;28;20025;-92
2022/06/15 14:54:53;;;;;;;2.78;1.45;;;;;;;;;;5013908;28;20037;-92
2022/06/15 14:57:24;;;;;;;3.35;1.65;;;;;;;;;;5013459;28;20398;-92
2022/06/15 14:59:54;;;;;;;6.95;1.52;;;;;;;;;;5014489;28;20029;-89
2022/06/15 15:02:20;;;;;;;;;;;;;;;;;;5024821;28;20029;-92
2022/06/15 15:04:56;;;;;;;3.17;1.70;;;;;;;;;;5033330;28;19959;-90
2022/06/15 15:10:24;;;;;;;6.85;1.90;;;;;;;;;;5034120;28;20102;-91
2022/06/15 15:12:50;;;;;;;3.15;1.70;;;;;;;;;;5032350;28;20481;-90
2022/06/15 15:15:16;;;;;;;6.00;1.90;;;;;;;;;;5019676;28;20521;-92
2022/06/15 15:17:53;;;;;;;3.00;1.65;;;;;;;;;;5012655;28;20109;-92
2022/06/15 15:20:49;;;;;;;5.10;1.83;;;;;;;;;;5012719;28;20113;-91
2022/06/15 15:23:15;;;;;;;4.00;2.05;;;;;;;;;;5011803;28;20037;-91
2022/06/15 15:25:52;;;;;;;2.50;1.75;;;;;;;;;;5012910;28;20022;-91
2022/06/15 15:34:11;;;;;;;5.55;2.42;;;;;;;;;;5014005;28;20037;-91
2022/06/15 15:39:43;;;;;;;3.55;1.70;;;;;;;;;;5014137;28;20373;-91
2022/06/15 15:42:11;;;;;;;2.38;1.75;;;;;;;;;;5024753;28;20034;-90
2022/06/15 15:44:38;;;;;;;2.45;1.77;;;;;;;;;;5032179;28;20040;-89
2022/06/15 15:47:05;;;;;;;8.18;1.60;;;;;;;;;;5031567;28;20041;-91
2022/06/15 15:49:32;;;;;;;8.98;1.60;;;;;;;;;;5033321;28;20444;-90
2022/06/15 15:52:00;;;;;;;8.18;1.70;;;;;;;;;;5030916;28;20032;-90
2022/06/15 15:54:26;;;;;;;4.40;1.85;;;;;;;;;;5023998;28;20521;-91
2022/06/15 15:56:52;;;;;;;3.10;1.88;;;;;;;;;;5032566;28;20029;-92
2022/06/15 15:59:21;;;;;;;6.55;2.13;;;;;;;;;;5032998;28;20059;-93
2022/06/15 16:01:47;;;;;;;3.15;1.52;;;;;;;;;;5027594;28;20489;-88
2022/06/15 16:04:14;;;;;;;3.63;1.77;;;;;;;;;;5012760;28;20030;-90
2022/06/15 16:06:40;;;;;;;3.75;1.73;;;;;;;;;;5033632;28;20029;-93
2022/06/15 16:09:08;;;;;;;6.03;1.95;;;;;;;;;;5022279;28;20084;-89
2022/06/15 16:11:34;;;;;;;4.68;2.10;;;;;;;;;;5027128;28;20113;-87
2022/06/15 16:14:00;;;;;;;7.35;1.92;;;;;;;;;;5032357;28;20022;-88
2022/06/15 16:16:27;;;;;;;5.38;1.95;;;;;;;;;;5031308;28;20021;-89
2022/06/15 16:18:53;;;;;;;7.65;2.13;;;;;;;;;;5032494;28;20021;-89
2022/06/15 16:21:19;;;;;;;3.22;1.63;;;;;;;;;;5030919;28;20029;-90
2022/06/15 16:23:46;;;;;;;5.93;2.17;;;;;;;;;;5032786;28;20021;-88
2022/06/15 16:26:12;;;;;;;6.63;2.38;;;;;;;;;;5031215;28;20028;-90
2022/06/15 16:28:38;;;;;;;4.38;2.05;;;;;;;;;;5032454;28;20021;-88
2022/06/15 16:31:06;;;;;;;3.65;2.05;;;;;;;;;;5032340;28;20504;-88
2022/06/15 16:33:32;;;;;;;4.88;1.80;;;;;;;;;;5030705;28;20036;-86
2022/06/15 16:35:59;;;;;;;3.20;2.05;;;;;;;;;;5031163;28;20053;-86
2022/06/15 16:38:26;;;;;;;3.90;1.90;;;;;;;;;;5030556;28;20498;-88
2022/06/15 16:41:08;;;;;;;5.60;2.15;;;;;;;;;;5030532;28;20029;-86
2022/06/15 16:43:34;;;;;;;5.72;1.73;;;;;;;;;;5031459;28;20033;-85
2022/06/15 16:46:01;;;;;;;7.13;2.20;;;;;;;;;;5031391;28;20037;-88
2022/06/15 16:48:27;;;;;;;5.93;2.33;;;;;;;;;;5029917;28;20037;-88
2022/06/15 16:50:54;;;;;;;3.40;2.15;;;;;;;;;;5011195;28;20037;-88
2022/06/15 16:53:20;;;;;;;3.88;2.10;;;;;;;;;;5027683;28;20036;-88
2022/06/15 16:55:46;;;;;;;4.50;2.20;;;;;;;;;;5013140;28;20022;-89
2022/06/15 16:58:14;;;;;;;6.82;2.00;;;;;;;;;;5011745;28;20469;-88
2022/06/15 17:00:40;;;;;;;7.03;2.10;;;;;;;;;;5011605;28;20053;-88
2022/06/15 17:03:06;;;;;;;4.20;2.20;;;;;;;;;;5013117;28;20104;-88
2022/06/15 17:05:32;;;;;;;7.57;2.40;;;;;;;;;;5013459;28;20037;-88
2022/06/15 17:07:59;;;;;;;2.50;1.65;;;;;;;;;;5011716;28;20029;-88
2022/06/15 17:10:27;;;;;;;7.35;2.95;;;;;;;;;;5014192;28;20085;-89
2022/06/15 17:12:53;;;;;;;4.70;2.58;;;;;;;;;;5012514;28;20014;-87
2022/06/15 17:15:19;;;;;;;5.20;2.20;;;;;;;;;;5027331;28;20029;-89
2022/06/15 17:17:46;;;;;;;5.45;2.88;;;;;;;;;;5019927;28;20033;-87
2022/06/15 17:20:13;;;;;;;4.88;2.10;;;;;;;;;;5020698;28;20030;-87
2022/06/15 17:22:39;;;;;;;6.47;2.17;;;;;;;;;;5016744;28;20022;-87
2022/06/15 17:25:07;;;;;;;6.85;2.72;;;;;;;;;;5024800;28;20049;-89
2022/06/15 17:27:33;;;;;;;5.53;2.05;;;;;;;;;;5016225;28;20022;-89
2022/06/15 17:30:00;;;;;;;5.90;2.15;;;;;;;;;;5011725;28;20032;-86
2022/06/15 17:32:26;;;;;;;5.63;2.58;;;;;;;;;;5011517;28;20058;-86
2022/06/15 17:34:52;;;;;;;4.18;2.45;;;;;;;;;;5012839;28;20022;-90
2022/06/15 17:37:20;;;;;;;3.88;2.63;;;;;;;;;;5011450;28;20018;-88
2022/06/15 17:39:46;;;;;;;6.15;2.25;;;;;;;;;;5018820;28;20033;-88
2022/06/15 17:42:12;;;;;;;11.35;2.40;;;;;;;;;;5032762;28;20026;-90
2022/06/15 17:44:39;;;;;;;4.70;1.88;;;;;;;;;;5033366;28;20045;-91
2022/06/15 17:47:06;;;;;;;6.85;2.00;;;;;;;;;;5031702;28;20456;-90
2022/06/15 17:49:32;;;;;;;10.25;2.78;;;;;;;;;;5031885;28;20489;-89
2022/06/15 17:51:58;;;;;;;6.55;2.42;;;;;;;;;;5029970;28;20034;-90
2022/06/15 17:54:25;;;;;;;7.30;2.30;;;;;;;;;;5015672;28;20022;-89
2022/06/15 17:56:52;;;;;;;7.32;2.28;;;;;;;;;;5017022;28;20022;-90
2022/06/15 17:59:20;;;;;;;6.90;2.03;;;;;;;;;;5016818;28;20026;-89
2022/06/15 18:01:47;;;;;;;3.75;2.20;;;;;;;;;;5015307;28;20402;-90
2022/06/15 18:04:14;;;;;;;6.55;2.58;;;;;;;;;;5015476;28;20473;-90
2022/06/15 18:06:41;;;;;;;6.65;2.72;;;;;;;;;;5015188;28;20038;-90
2022/06/15 18:09:08;;;;;;;4.15;2.25;;;;;;;;;;5015351;28;20172;-90
2022/06/15 18:11:34;;;;;;;4.35;2.50;;;;;;;;;;5016925;28;20096;-89
2022/06/15 18:14:01;;;;;;;6.47;2.65;;;;;;;;;;5019215;28;20021;-91
2022/06/15 18:16:33;;;;;;;6.03;2.30;;;;;;;;;;5035320;28;20060;-90
2022/06/15 18:19:04;;;;;;;3.25;2.15;;;;;;;;;;5031408;28;20022;-90
2022/06/15 18:21:32;;;;;;;4.75;2.42;;;;;;;;;;5014920;28;20022;-90
2022/06/15 18:23:59;;;;;;;5.15;2.30;;;;;;;;;;5015344;28;20022;-90
2022/06/15 18:26:25;;;;;;;10.98;2.30;;;;;;;;;;5016525;28;20470;-91
2022/06/15 18:28:51;;;;;;;8.25;2.80;;;;;;;;;;5014943;28;20030;-90
2022/06/15 18:31:18;;;;;;;5.43;2.38;;;;;;;;;;5014988;28;20124;-91
2022/06/15 18:33:44;;;;;;;3.80;2.13;;;;;;;;;;5016220;28;20022;-91
2022/06/15 18:36:11;;;;;;;2.95;2.33;;;;;;;;;;5023394;28;20346;-90
2022/06/15 18:38:38;;;;;;;9.48;3.00;;;;;;;;;;5034777;28;20045;-90
2022/06/15 18:41:04;;;;;;;6.13;2.38;;;;;;;;;;5038406;28;20147;-92
2022/06/15 18:49:01;;;;;;;5.65;2.40;;;;;;;;;;5037015;28;20040;-90
2022/06/15 18:51:27;;;;;;;8.63;3.55;;;;;;;;;;5034206;28;20026;-89
2022/06/15 18:53:54;;;;;;;5.40;2.40;;;;;;;;;;5017923;28;20033;-89
2022/06/15 18:56:20;;;;;;;5.45;2.90;;;;;;;;;;5016923;28;20037;-89
2022/06/15 18:58:46;;;;;;;8.32;3.33;;;;;;;;;;5018406;28;20026;-89
2022/06/15 19:01:12;;;;;;;6.70;2.45;;;;;;;;;;5019475;28;20052;-90
2022/06/15 19:03:39;;;;;;;5.35;2.58;;;;;;;;;;5029346;28;20076;-90
2022/06/15 19:06:05;;;;;;;5.03;2.67;;;;;;;;;;5017246;28;20506;-89
2022/06/15 19:08:32;;;;;;;5.65;2.90;;;;;;;;;;5016902;28;20030;-90
2022/06/15 19:10:58;;;;;;;4.03;2.75;;;;;;;;;;5016353;28;20034;-91
2022/06/15 19:13:24;;;;;;;4.65;3.33;;;;;;;;;;5015682;28;20025;-91
2022/06/15 19:15:50;;;;;;;3.42;2.40;;;;;;;;;;5015111;28;20093;-89
2022/06/15 19:18:20;;;;;;;11.23;3.00;;;;;;;;;;5016575;28;20075;-89
2022/06/15 19:20:49;;;;;;;6.75;2.95;;;;;;;;;;5034388;28;20032;-90
2022/06/15 19:23:15;;;;;;;4.85;2.75;;;;;;;;;;5034718;28;20176;-89
2022/06/15 19:25:42;;;;;;;5.95;2.85;;;;;;;;;;5035138;28;20224;-87
2022/06/15 19:28:08;;;;;;;9.38;2.65;;;;;;;;;;5033363;28;20668;-87
2022/06/15 19:30:35;;;;;;;6.78;3.10;;;;;;;;;;5049280;28;20040;-89
2022/06/15 19:33:01;;;;;;;6.40;2.95;;;;;;;;;;5034081;28;20030;-89
2022/06/15 19:35:27;;;;;;;6.15;3.00;;;;;;;;;;5032512;28;20465;-88
2022/06/15 19:37:53;;;;;;;4.13;2.90;;;;;;;;;;5034785;28;20060;-91
2022/06/15 19:40:21;;;;;;;6.88;2.63;;;;;;;;;;5032892;28;20030;-89
2022/06/15 19:42:47;;;;;;;3.92;2.58;;;;;;;;;;5034784;28;20381;-90
2022/06/15 19:45:14;;;;;;;4.75;2.97;;;;;;;;;;5034037;28;20049;-90
2022/06/15 19:47:40;;;;;;;5.00;3.15;;;;;;;;;;5031612;28;20037;-89
2022/06/15 19:50:07;;;;;;;4.55;2.63;;;;;;;;;;5031974;28;20080;-91
2022/06/15 19:52:33;;;;;;;5.93;2.60;;;;;;;;;;5026708;28;20033;-89
2022/06/15 19:54:59;;;;;;;9.90;2.50;;;;;;;;;;5013858;28;20462;-90
2022/06/15 19:57:26;;;;;;;4.05;2.40;;;;;;;;;;5012906;28;20022;-89
2022/06/15 19:59:53;;;;;;;13.02;3.05;;;;;;;;;;5012062;28;20026;-90
2022/06/15 20:02:20;;;;;;;5.38;3.22;;;;;;;;;;5030625;28;20513;-92
2022/06/15 20:04:46;;;;;;;7.38;2.80;;;;;;;;;;5033111;28;20036;-92
2022/06/15 20:07:14;;;;;;;4.22;3.00;;;;;;;;;;5032708;28;20026;-91
2022/06/15 20:09:41;;;;;;;8.00;3.17;;;;;;;;;;5034113;28;20069;-92
2022/06/15 20:12:08;;;;;;;5.53;3.10;;;;;;;;;;5032977;28;20590;-90
2022/06/15 20:14:34;;;;;;;5.90;2.80;;;;;;;;;;5033941;28;20508;-90
2022/06/15 20:17:01;;;;;;;6.93;3.03;;;;;;;;;;5056717;28;20055;-92
2022/06/15 20:19:31;;;;;;;4.70;2.33;;;;;;;;;;5057829;28;20017;-91
2022/06/15 20:21:57;;;;;;;6.43;2.70;;;;;;;;;;5057222;28;20025;-91
2022/06/15 20:24:23;;;;;;;4.07;2.97;;;;;;;;;;5056104;28;20018;-90
2022/06/15 20:26:50;;;;;;;6.45;2.95;;;;;;;;;;5035790;28;20029;-91
2022/06/15 20:29:18;;;;;;;5.57;3.00;;;;;;;;;;5034169;28;20025;-88
2022/06/15 20:31:44;;;;;;;8.70;3.33;;;;;;;;;;5033304;28;20048;-91
2022/06/15 20:34:10;;;;;;;5.68;3.33;;;;;;;;;;5034363;28;20025;-90
2022/06/15 20:36:36;;;;;;;4.07;2.95;;;;;;;;;;5033229;28;20030;-91
2022/06/15 20:39:08;;;;;;;7.38;3.10;;;;;;;;;;5039441;28;20029;-95
2022/06/15 20:41:35;;;;;;;3.95;2.63;;;;;;;;;;5038447;28;20032;-92